sensor_id;sensor_type;location;lat;lon;timestamp;pressure;altitude;pressure_sealevel;temperature;humidity
34696;BME280;20918;51.138;17.370;2023-05-11T00:02:15;100299.14;;;9.46;57.11
34696;BME280;20918;51.138;17.370;2023-05-11T00:05:16;100295.40;;;9.44;57.52
34696;BME280;20918;51.138;17.370;2023-05-11T00:08:20;100295.21;;;9.40;57.53
34696;BME280;20918;51.138;17.370;2023-05-11T00:11:20;100295.02;;;9.37;57.50
34696;BME280;20918;51.138;17.370;2023-05-11T00:14:29;100297.49;;;9.35;57.55
34696;BME280;20918;51.138;17.370;2023-05-11T00:17:30;100295.03;;;9.34;57.81
34696;BME280;20918;51.138;17.370;2023-05-11T00:20:31;100296.58;;;9.32;57.86
34696;BME280;20918;51.138;17.370;2023-05-11T00:23:32;100293.90;;;9.29;57.95
34696;BME280;20918;51.138;17.370;2023-05-11T00:26:33;100295.18;;;9.27;57.97
34696;BME280;20918;51.138;17.370;2023-05-11T00:29:37;100293.30;;;9.23;58.14
34696;BME280;20918;51.138;17.370;2023-05-11T00:32:38;100293.27;;;9.19;58.46
34696;BME280;20918;51.138;17.370;2023-05-11T00:35:42;100292.40;;;9.14;58.63
34696;BME280;20918;51.138;17.370;2023-05-11T00:38:43;100289.06;;;9.10;58.85
34696;BME280;20918;51.138;17.370;2023-05-11T00:41:44;100291.31;;;9.07;58.75
34696;BME280;20918;51.138;17.370;2023-05-11T00:45:05;100297.45;;;9.04;59.09
34696;BME280;20918;51.138;17.370;2023-05-11T00:48:09;100296.83;;;9.02;59.00
34696;BME280;20918;51.138;17.370;2023-05-11T00:51:10;100297.36;;;9.02;59.05
34696;BME280;20918;51.138;17.370;2023-05-11T00:54:13;100298.02;;;9.02;59.15
34696;BME280;20918;51.138;17.370;2023-05-11T00:57:15;100294.23;;;9.03;59.13
34696;BME280;20918;51.138;17.370;2023-05-11T01:00:19;100292.39;;;9.04;59.25
34696;BME280;20918;51.138;17.370;2023-05-11T01:03:23;100294.80;;;9.04;59.20
34696;BME280;20918;51.138;17.370;2023-05-11T01:09:34;100294.15;;;9.02;59.40
34696;BME280;20918;51.138;17.370;2023-05-11T01:16:22;100293.30;;;8.94;59.67
34696;BME280;20918;51.138;17.370;2023-05-11T01:19:58;100289.69;;;8.91;59.71
34696;BME280;20918;51.138;17.370;2023-05-11T01:33:15;100290.52;;;8.88;60.05
34696;BME280;20918;51.138;17.370;2023-05-11T01:36:29;100292.73;;;8.89;60.10
34696;BME280;20918;51.138;17.370;2023-05-11T01:39:36;100294.72;;;8.87;60.30
34696;BME280;20918;51.138;17.370;2023-05-11T01:42:42;100297.14;;;8.88;60.40
34696;BME280;20918;51.138;17.370;2023-05-11T01:46:04;100293.96;;;8.88;60.48
34696;BME280;20918;51.138;17.370;2023-05-11T01:49:06;100295.84;;;8.86;60.65
34696;BME280;20918;51.138;17.370;2023-05-11T01:52:08;100298.71;;;8.84;60.73
34696;BME280;20918;51.138;17.370;2023-05-11T01:55:11;100300.91;;;8.82;60.77
34696;BME280;20918;51.138;17.370;2023-05-11T01:58:14;100299.20;;;8.79;60.82
34696;BME280;20918;51.138;17.370;2023-05-11T02:04:27;100301.11;;;8.74;61.15
34696;BME280;20918;51.138;17.370;2023-05-11T02:07:30;100310.31;;;8.70;61.31
34696;BME280;20918;51.138;17.370;2023-05-11T02:10:32;100310.48;;;8.70;61.28
34696;BME280;20918;51.138;17.370;2023-05-11T02:13:34;100314.14;;;8.71;61.48
34696;BME280;20918;51.138;17.370;2023-05-11T02:16:36;100312.07;;;8.70;61.49
34696;BME280;20918;51.138;17.370;2023-05-11T02:19:38;100314.23;;;8.70;61.58
34696;BME280;20918;51.138;17.370;2023-05-11T02:22:42;100316.02;;;8.69;61.55
34696;BME280;20918;51.138;17.370;2023-05-11T02:25:46;100320.99;;;8.69;61.71
34696;BME280;20918;51.138;17.370;2023-05-11T02:28:48;100323.08;;;8.68;61.85
34696;BME280;20918;51.138;17.370;2023-05-11T02:31:56;100323.55;;;8.66;61.95
34696;BME280;20918;51.138;17.370;2023-05-11T02:35:00;100320.91;;;8.65;62.12
34696;BME280;20918;51.138;17.370;2023-05-11T02:38:05;100321.33;;;8.62;62.02
34696;BME280;20918;51.138;17.370;2023-05-11T02:41:11;100317.95;;;8.63;62.17
34696;BME280;20918;51.138;17.370;2023-05-11T02:44:15;100319.00;;;8.63;62.24
34696;BME280;20918;51.138;17.370;2023-05-11T02:47:21;100316.67;;;8.61;62.30
34696;BME280;20918;51.138;17.370;2023-05-11T02:50:29;100316.40;;;8.60;62.39
34696;BME280;20918;51.138;17.370;2023-05-11T02:53:31;100318.23;;;8.61;62.40
34696;BME280;20918;51.138;17.370;2023-05-11T02:56:33;100321.55;;;8.63;62.38
34696;BME280;20918;51.138;17.370;2023-05-11T02:59:45;100323.15;;;8.67;62.34
34696;BME280;20918;51.138;17.370;2023-05-11T03:02:46;100319.84;;;8.66;62.32
34696;BME280;20918;51.138;17.370;2023-05-11T03:05:56;100324.20;;;8.63;62.40
34696;BME280;20918;51.138;17.370;2023-05-11T03:09:08;100320.36;;;8.63;62.37
34696;BME280;20918;51.138;17.370;2023-05-11T03:12:14;100321.05;;;8.61;62.38
34696;BME280;20918;51.138;17.370;2023-05-11T03:15:15;100317.66;;;8.64;62.38
34696;BME280;20918;51.138;17.370;2023-05-11T03:18:18;100316.98;;;8.62;62.26
34696;BME280;20918;51.138;17.370;2023-05-11T03:21:19;100315.41;;;8.61;62.35
34696;BME280;20918;51.138;17.370;2023-05-11T03:24:22;100316.61;;;8.62;62.28
34696;BME280;20918;51.138;17.370;2023-05-11T03:27:25;100320.37;;;8.63;62.26
34696;BME280;20918;51.138;17.370;2023-05-11T03:30:29;100319.20;;;8.62;62.36
34696;BME280;20918;51.138;17.370;2023-05-11T03:33:52;100322.65;;;8.61;62.43
34696;BME280;20918;51.138;17.370;2023-05-11T03:36:55;100321.55;;;8.62;62.53
34696;BME280;20918;51.138;17.370;2023-05-11T03:39:58;100324.09;;;8.65;62.65
34696;BME280;20918;51.138;17.370;2023-05-11T03:43:01;100324.42;;;8.65;62.67
34696;BME280;20918;51.138;17.370;2023-05-11T03:46:04;100324.31;;;8.64;62.60
34696;BME280;20918;51.138;17.370;2023-05-11T03:49:06;100323.13;;;8.65;62.65
34696;BME280;20918;51.138;17.370;2023-05-11T03:52:08;100324.68;;;8.67;62.72
34696;BME280;20918;51.138;17.370;2023-05-11T03:55:12;100323.48;;;8.71;62.76
34696;BME280;20918;51.138;17.370;2023-05-11T03:58:17;100321.67;;;8.71;62.78
34696;BME280;20918;51.138;17.370;2023-05-11T04:01:18;100324.86;;;8.73;62.88
34696;BME280;20918;51.138;17.370;2023-05-11T04:04:29;100326.90;;;8.73;62.91
34696;BME280;20918;51.138;17.370;2023-05-11T04:07:31;100327.05;;;8.76;62.97
34696;BME280;20918;51.138;17.370;2023-05-11T04:10:32;100325.59;;;8.78;62.96
34696;BME280;20918;51.138;17.370;2023-05-11T04:13:36;100325.08;;;8.78;63.00
34696;BME280;20918;51.138;17.370;2023-05-11T04:16:46;100328.71;;;8.79;62.97
34696;BME280;20918;51.138;17.370;2023-05-11T04:19:57;100326.56;;;8.81;62.89
34696;BME280;20918;51.138;17.370;2023-05-11T04:23:00;100324.52;;;8.84;62.86
34696;BME280;20918;51.138;17.370;2023-05-11T04:26:04;100323.23;;;8.86;62.85
34696;BME280;20918;51.138;17.370;2023-05-11T04:29:06;100324.31;;;8.87;62.79
34696;BME280;20918;51.138;17.370;2023-05-11T04:32:07;100325.02;;;8.91;62.89
34696;BME280;20918;51.138;17.370;2023-05-11T04:35:18;100327.02;;;8.96;62.88
34696;BME280;20918;51.138;17.370;2023-05-11T04:38:31;100331.20;;;9.05;63.05
34696;BME280;20918;51.138;17.370;2023-05-11T04:41:35;100327.95;;;9.12;63.03
34696;BME280;20918;51.138;17.370;2023-05-11T04:44:56;100331.46;;;9.13;62.84
34696;BME280;20918;51.138;17.370;2023-05-11T04:48:09;100338.17;;;9.19;62.77
34696;BME280;20918;51.138;17.370;2023-05-11T04:51:23;100333.66;;;9.22;62.99
34696;BME280;20918;51.138;17.370;2023-05-11T04:54:33;100335.98;;;9.26;62.77
34696;BME280;20918;51.138;17.370;2023-05-11T04:57:42;100337.61;;;9.30;62.67
34696;BME280;20918;51.138;17.370;2023-05-11T05:00:46;100337.05;;;9.32;62.44
34696;BME280;20918;51.138;17.370;2023-05-11T05:07:49;100347.92;;;9.39;62.74
34696;BME280;20918;51.138;17.370;2023-05-11T05:10:52;100348.21;;;9.44;62.61
34696;BME280;20918;51.138;17.370;2023-05-11T05:14:14;100339.88;;;9.50;62.70
34696;BME280;20918;51.138;17.370;2023-05-11T05:17:20;100348.88;;;9.56;62.90
34696;BME280;20918;51.138;17.370;2023-05-11T05:20:28;100349.16;;;9.66;62.63
34696;BME280;20918;51.138;17.370;2023-05-11T05:23:32;100356.10;;;9.78;62.60
34696;BME280;20918;51.138;17.370;2023-05-11T05:26:39;100354.09;;;9.97;62.50
34696;BME280;20918;51.138;17.370;2023-05-11T05:33:26;100352.88;;;10.87;62.27
34696;BME280;20918;51.138;17.370;2023-05-11T05:36:27;100352.15;;;11.19;61.85
34696;BME280;20918;51.138;17.370;2023-05-11T05:39:43;100354.27;;;11.36;61.07
34696;BME280;20918;51.138;17.370;2023-05-11T05:42:59;100352.90;;;11.38;61.03
34696;BME280;20918;51.138;17.370;2023-05-11T05:46:09;100355.89;;;11.45;60.65
34696;BME280;20918;51.138;17.370;2023-05-11T05:49:13;100358.24;;;11.59;60.86
34696;BME280;20918;51.138;17.370;2023-05-11T05:52:35;100359.88;;;11.75;60.77
34696;BME280;20918;51.138;17.370;2023-05-11T05:56:00;100363.86;;;11.79;60.34
34696;BME280;20918;51.138;17.370;2023-05-11T05:59:07;100363.27;;;11.90;60.03
34696;BME280;20918;51.138;17.370;2023-05-11T06:02:13;100364.30;;;11.83;59.90
34696;BME280;20918;51.138;17.370;2023-05-11T06:05:19;100366.48;;;11.81;60.00
34696;BME280;20918;51.138;17.370;2023-05-11T06:08:29;100363.77;;;11.75;59.80
34696;BME280;20918;51.138;17.370;2023-05-11T06:11:49;100366.21;;;11.67;59.91
34696;BME280;20918;51.138;17.370;2023-05-11T06:18:09;100369.16;;;11.70;59.74
34696;BME280;20918;51.138;17.370;2023-05-11T06:21:23;100372.29;;;11.69;59.87
34696;BME280;20918;51.138;17.370;2023-05-11T06:24:51;100374.74;;;11.74;60.07
34696;BME280;20918;51.138;17.370;2023-05-11T06:27:53;100372.01;;;11.81;60.05
34696;BME280;20918;51.138;17.370;2023-05-11T06:30:58;100374.86;;;11.94;60.25
34696;BME280;20918;51.138;17.370;2023-05-11T06:34:05;100373.69;;;12.04;59.87
34696;BME280;20918;51.138;17.370;2023-05-11T06:37:07;100370.30;;;12.11;59.74
34696;BME280;20918;51.138;17.370;2023-05-11T06:40:20;100371.64;;;12.21;59.69
34696;BME280;20918;51.138;17.370;2023-05-11T06:50:41;100368.03;;;12.60;59.92
34696;BME280;20918;51.138;17.370;2023-05-11T06:57:47;100364.63;;;13.04;59.32
34696;BME280;20918;51.138;17.370;2023-05-11T07:05:13;100367.27;;;13.80;58.95
34696;BME280;20918;51.138;17.370;2023-05-11T07:08:14;100369.85;;;14.11;58.29
34696;BME280;20918;51.138;17.370;2023-05-11T07:11:17;100367.26;;;14.22;58.01
34696;BME280;20918;51.138;17.370;2023-05-11T07:17:43;100362.73;;;14.71;57.31
34696;BME280;20918;51.138;17.370;2023-05-11T07:20:55;100363.04;;;14.79;56.91
34696;BME280;20918;51.138;17.370;2023-05-11T07:28:27;100363.86;;;14.90;56.66
34696;BME280;20918;51.138;17.370;2023-05-11T07:31:36;100365.65;;;15.08;56.65
34696;BME280;20918;51.138;17.370;2023-05-11T07:34:50;100368.04;;;15.31;56.06
34696;BME280;20918;51.138;17.370;2023-05-11T07:38:00;100365.73;;;15.35;55.75
34696;BME280;20918;51.138;17.370;2023-05-11T07:41:28;100367.73;;;15.41;55.46
34696;BME280;20918;51.138;17.370;2023-05-11T07:44:45;100369.13;;;15.55;55.85
34696;BME280;20918;51.138;17.370;2023-05-11T07:48:13;100370.45;;;15.60;55.70
34696;BME280;20918;51.138;17.370;2023-05-11T07:55:17;100375.58;;;15.72;55.81
34696;BME280;20918;51.138;17.370;2023-05-11T08:02:31;100373.96;;;15.86;55.43
34696;BME280;20918;51.138;17.370;2023-05-11T08:09:23;100372.56;;;16.28;55.43
34696;BME280;20918;51.138;17.370;2023-05-11T08:16:49;100364.12;;;17.53;54.79
34696;BME280;20918;51.138;17.370;2023-05-11T08:20:13;100362.31;;;18.08;54.02
34696;BME280;20918;51.138;17.370;2023-05-11T08:23:47;100363.95;;;18.54;53.44
34696;BME280;20918;51.138;17.370;2023-05-11T08:27:11;100360.71;;;19.07;52.91
34696;BME280;20918;51.138;17.370;2023-05-11T08:30:22;100359.04;;;19.78;52.00
34696;BME280;20918;51.138;17.370;2023-05-11T08:33:26;100357.41;;;20.25;51.23
34696;BME280;20918;51.138;17.370;2023-05-11T08:36:37;100357.05;;;20.58;50.53
34696;BME280;20918;51.138;17.370;2023-05-11T08:39:58;100349.65;;;20.91;50.20
34696;BME280;20918;51.138;17.370;2023-05-11T08:43:59;100346.55;;;21.38;49.32
34696;BME280;20918;51.138;17.370;2023-05-11T08:47:13;100341.21;;;21.68;47.46
34696;BME280;20918;51.138;17.370;2023-05-11T08:50:34;100341.45;;;21.78;47.03
34696;BME280;20918;51.138;17.370;2023-05-11T08:57:57;100340.63;;;21.70;44.87
34696;BME280;20918;51.138;17.370;2023-05-11T09:01:48;100339.67;;;21.71;44.45
34696;BME280;20918;51.138;17.370;2023-05-11T09:13:19;100336.71;;;22.03;43.91
34696;BME280;20918;51.138;17.370;2023-05-11T09:16:59;100337.88;;;21.66;43.52
34696;BME280;20918;51.138;17.370;2023-05-11T09:27:46;100330.99;;;21.26;43.05
34696;BME280;20918;51.138;17.370;2023-05-11T09:39:28;100330.30;;;21.14;41.50
34696;BME280;20918;51.138;17.370;2023-05-11T09:43:22;100329.52;;;21.12;41.07
34696;BME280;20918;51.138;17.370;2023-05-11T09:47:10;100329.66;;;20.75;41.10
34696;BME280;20918;51.138;17.370;2023-05-11T09:50:51;100334.86;;;20.22;41.16
34696;BME280;20918;51.138;17.370;2023-05-11T09:54:23;100324.96;;;20.04;41.69
34696;BME280;20918;51.138;17.370;2023-05-11T10:04:51;100326.25;;;20.32;40.25
34696;BME280;20918;51.138;17.370;2023-05-11T10:15:07;100314.80;;;20.58;41.85
34696;BME280;20918;51.138;17.370;2023-05-11T10:25:51;100310.73;;;20.85;39.77
34696;BME280;20918;51.138;17.370;2023-05-11T10:29:16;100316.08;;;20.40;40.04
34696;BME280;20918;51.138;17.370;2023-05-11T10:36:15;100310.96;;;19.79;41.49
34696;BME280;20918;51.138;17.370;2023-05-11T10:39:38;100305.16;;;19.79;42.00
34696;BME280;20918;51.138;17.370;2023-05-11T10:54:33;100297.27;;;21.64;39.04
34696;BME280;20918;51.138;17.370;2023-05-11T10:58:31;100291.71;;;21.55;39.58
34696;BME280;20918;51.138;17.370;2023-05-11T11:02:14;100288.95;;;21.38;39.60
34696;BME280;20918;51.138;17.370;2023-05-11T11:05:43;100290.72;;;21.08;39.87
34696;BME280;20918;51.138;17.370;2023-05-11T11:09:16;100287.02;;;20.69;39.85
34696;BME280;20918;51.138;17.370;2023-05-11T11:13:12;100293.30;;;20.33;40.64
34696;BME280;20918;51.138;17.370;2023-05-11T11:24:57;100294.91;;;19.62;41.17
34696;BME280;20918;51.138;17.370;2023-05-11T11:28:10;100298.17;;;19.43;41.80
34696;BME280;20918;51.138;17.370;2023-05-11T11:31:31;100302.10;;;19.24;41.43
34696;BME280;20918;51.138;17.370;2023-05-11T11:34:38;100301.63;;;19.12;41.40
34696;BME280;20918;51.138;17.370;2023-05-11T11:38:19;100297.54;;;19.04;41.79
34696;BME280;20918;51.138;17.370;2023-05-11T11:42:03;100297.02;;;19.03;41.68
34696;BME280;20918;51.138;17.370;2023-05-11T11:49:50;100294.79;;;19.07;42.32
34696;BME280;20918;51.138;17.370;2023-05-11T11:53:08;100292.50;;;19.24;41.84
34696;BME280;20918;51.138;17.370;2023-05-11T11:56:35;100297.20;;;19.55;41.71
34696;BME280;20918;51.138;17.370;2023-05-11T12:00:21;100293.36;;;19.59;41.62
34696;BME280;20918;51.138;17.370;2023-05-11T12:04:38;100296.71;;;19.55;41.74
34696;BME280;20918;51.138;17.370;2023-05-11T12:07:23;100294.53;;;19.48;41.58
34696;BME280;20918;51.138;17.370;2023-05-11T12:11:07;100294.69;;;19.45;41.55
34696;BME280;20918;51.138;17.370;2023-05-11T12:14:40;100294.11;;;19.50;41.13
34696;BME280;20918;51.138;17.370;2023-05-11T12:18:19;100294.66;;;19.49;40.96
34696;BME280;20918;51.138;17.370;2023-05-11T12:21:52;100293.73;;;19.60;41.22
34696;BME280;20918;51.138;17.370;2023-05-11T12:25:18;100289.66;;;19.96;40.80
34696;BME280;20918;51.138;17.370;2023-05-11T12:28:33;100284.15;;;20.44;40.49
34696;BME280;20918;51.138;17.370;2023-05-11T12:31:43;100269.86;;;20.72;40.49
34696;BME280;20918;51.138;17.370;2023-05-11T12:35:28;100271.64;;;20.72;39.48
34696;BME280;20918;51.138;17.370;2023-05-11T12:39:19;100269.45;;;20.42;39.21
34696;BME280;20918;51.138;17.370;2023-05-11T12:43:28;100265.98;;;20.41;39.24
34696;BME280;20918;51.138;17.370;2023-05-11T12:47:13;100260.58;;;20.72;39.18
34696;BME280;20918;51.138;17.370;2023-05-11T12:54:32;100252.58;;;21.13;38.34
34696;BME280;20918;51.138;17.370;2023-05-11T12:58:16;100256.22;;;21.01;37.79
34696;BME280;20918;51.138;17.370;2023-05-11T13:12:47;100238.17;;;20.37;37.55
34696;BME280;20918;51.138;17.370;2023-05-11T13:16:02;100233.60;;;20.51;36.68
34696;BME280;20918;51.138;17.370;2023-05-11T13:31:23;100234.01;;;20.20;37.07
34696;BME280;20918;51.138;17.370;2023-05-11T13:35:00;100232.92;;;20.07;36.69
34696;BME280;20918;51.138;17.370;2023-05-11T13:38:13;100227.88;;;20.00;36.91
34696;BME280;20918;51.138;17.370;2023-05-11T13:49:33;100227.83;;;19.81;36.91
34696;BME280;20918;51.138;17.370;2023-05-11T13:56:58;100223.89;;;19.68;37.42
34696;BME280;20918;51.138;17.370;2023-05-11T14:00:04;100216.11;;;19.82;38.20
34696;BME280;20918;51.138;17.370;2023-05-11T14:04:06;100207.98;;;20.17;37.99
34696;BME280;20918;51.138;17.370;2023-05-11T14:07:33;100203.20;;;20.45;36.50
34696;BME280;20918;51.138;17.370;2023-05-11T14:11:29;100197.45;;;20.68;36.12
34696;BME280;20918;51.138;17.370;2023-05-11T14:15:02;100197.30;;;20.88;35.75
34696;BME280;20918;51.138;17.370;2023-05-11T14:18:48;100198.23;;;20.93;35.12
34696;BME280;20918;51.138;17.370;2023-05-11T14:22:11;100193.87;;;20.82;35.34
34696;BME280;20918;51.138;17.370;2023-05-11T14:25:20;100194.62;;;20.55;34.85
34696;BME280;20918;51.138;17.370;2023-05-11T14:28:21;100197.15;;;20.42;35.10
34696;BME280;20918;51.138;17.370;2023-05-11T14:31:23;100198.38;;;20.40;35.56
34696;BME280;20918;51.138;17.370;2023-05-11T14:34:48;100196.55;;;20.34;35.49
34696;BME280;20918;51.138;17.370;2023-05-11T14:38:12;100191.15;;;20.24;35.60
34696;BME280;20918;51.138;17.370;2023-05-11T14:41:13;100193.80;;;20.10;35.39
34696;BME280;20918;51.138;17.370;2023-05-11T14:44:14;100188.10;;;20.04;35.76
34696;BME280;20918;51.138;17.370;2023-05-11T14:47:15;100190.89;;;20.02;35.95
34696;BME280;20918;51.138;17.370;2023-05-11T14:50:17;100187.85;;;19.98;36.14
34696;BME280;20918;51.138;17.370;2023-05-11T14:53:18;100185.30;;;19.93;35.85
34696;BME280;20918;51.138;17.370;2023-05-11T14:56:19;100184.39;;;19.89;36.06
34696;BME280;20918;51.138;17.370;2023-05-11T14:59:33;100185.27;;;19.88;36.20
34696;BME280;20918;51.138;17.370;2023-05-11T15:02:43;100183.91;;;19.87;36.44
34696;BME280;20918;51.138;17.370;2023-05-11T15:06:08;100191.63;;;19.94;36.04
34696;BME280;20918;51.138;17.370;2023-05-11T15:09:09;100189.92;;;20.00;36.06
34696;BME280;20918;51.138;17.370;2023-05-11T15:12:33;100182.86;;;20.08;36.42
34696;BME280;20918;51.138;17.370;2023-05-11T15:16:08;100181.52;;;20.16;36.15
34696;BME280;20918;51.138;17.370;2023-05-11T15:19:15;100188.76;;;20.23;35.96
34696;BME280;20918;51.138;17.370;2023-05-11T15:22:24;100191.00;;;20.20;35.06
34696;BME280;20918;51.138;17.370;2023-05-11T15:26:18;100190.89;;;20.02;34.95
34696;BME280;20918;51.138;17.370;2023-05-11T15:29:19;100191.52;;;19.88;35.07
34696;BME280;20918;51.138;17.370;2023-05-11T15:32:52;100190.88;;;19.73;35.23
34696;BME280;20918;51.138;17.370;2023-05-11T15:36:13;100192.01;;;19.63;35.72
34696;BME280;20918;51.138;17.370;2023-05-11T15:43:01;100195.08;;;19.50;36.09
34696;BME280;20918;51.138;17.370;2023-05-11T15:46:29;100199.86;;;19.48;35.71
34696;BME280;20918;51.138;17.370;2023-05-11T15:49:37;100202.13;;;19.54;35.38
34696;BME280;20918;51.138;17.370;2023-05-11T15:52:46;100197.08;;;19.60;35.82
34696;BME280;20918;51.138;17.370;2023-05-11T15:56:34;100190.41;;;19.66;35.72
34696;BME280;20918;51.138;17.370;2023-05-11T15:59:42;100192.10;;;19.67;36.07
34696;BME280;20918;51.138;17.370;2023-05-11T16:02:46;100188.60;;;19.59;35.81
34696;BME280;20918;51.138;17.370;2023-05-11T16:14:16;100186.23;;;19.46;35.93
34696;BME280;20918;51.138;17.370;2023-05-11T16:17:39;100188.90;;;19.44;36.11
34696;BME280;20918;51.138;17.370;2023-05-11T16:20:50;100192.27;;;19.38;35.80
34696;BME280;20918;51.138;17.370;2023-05-11T16:23:58;100195.42;;;19.30;35.35
34696;BME280;20918;51.138;17.370;2023-05-11T16:31:57;100190.06;;;19.08;35.95
34696;BME280;20918;51.138;17.370;2023-05-11T16:35:27;100191.84;;;19.04;35.67
34696;BME280;20918;51.138;17.370;2023-05-11T16:39:24;100188.81;;;19.06;35.85
34696;BME280;20918;51.138;17.370;2023-05-11T16:42:33;100183.96;;;19.07;36.27
34696;BME280;20918;51.138;17.370;2023-05-11T16:45:58;100181.67;;;19.07;36.43
34696;BME280;20918;51.138;17.370;2023-05-11T16:50:02;100181.73;;;19.05;36.57
34696;BME280;20918;51.138;17.370;2023-05-11T16:54:00;100181.94;;;19.01;36.94
34696;BME280;20918;51.138;17.370;2023-05-11T17:01:28;100180.37;;;18.91;37.42
34696;BME280;20918;51.138;17.370;2023-05-11T17:04:58;100184.23;;;18.84;37.53
34696;BME280;20918;51.138;17.370;2023-05-11T17:08:30;100186.35;;;18.77;37.37
34696;BME280;20918;51.138;17.370;2023-05-11T17:11:34;100186.06;;;18.71;37.11
34696;BME280;20918;51.138;17.370;2023-05-11T17:14:41;100185.60;;;18.64;37.10
34696;BME280;20918;51.138;17.370;2023-05-11T17:17:46;100190.23;;;18.58;36.90
34696;BME280;20918;51.138;17.370;2023-05-11T17:20:53;100197.96;;;18.51;37.11
34696;BME280;20918;51.138;17.370;2023-05-11T17:24:07;100200.50;;;18.44;37.50
34696;BME280;20918;51.138;17.370;2023-05-11T17:31:25;100198.73;;;18.23;37.71
34696;BME280;20918;51.138;17.370;2023-05-11T17:38:41;100203.64;;;18.03;37.64
34696;BME280;20918;51.138;17.370;2023-05-11T17:46:15;100212.02;;;17.80;37.71
34696;BME280;20918;51.138;17.370;2023-05-11T17:49:50;100216.83;;;17.66;37.85
34696;BME280;20918;51.138;17.370;2023-05-11T17:53:20;100222.40;;;17.53;37.88
34696;BME280;20918;51.138;17.370;2023-05-11T17:57:04;100221.14;;;17.38;38.05
34696;BME280;20918;51.138;17.370;2023-05-11T18:00:30;100226.02;;;17.26;38.27
34696;BME280;20918;51.138;17.370;2023-05-11T18:03:48;100228.46;;;17.14;38.45
34696;BME280;20918;51.138;17.370;2023-05-11T18:07:11;100230.61;;;16.98;38.79
34696;BME280;20918;51.138;17.370;2023-05-11T18:10:15;100236.91;;;16.86;38.97
34696;BME280;20918;51.138;17.370;2023-05-11T18:13:19;100241.34;;;16.74;39.16
34696;BME280;20918;51.138;17.370;2023-05-11T18:16:20;100247.69;;;16.60;39.30
34696;BME280;20918;51.138;17.370;2023-05-11T18:19:21;100249.20;;;16.44;39.51
34696;BME280;20918;51.138;17.370;2023-05-11T18:22:36;100251.68;;;16.31;39.69
34696;BME280;20918;51.138;17.370;2023-05-11T18:25:51;100254.59;;;16.15;39.87
34696;BME280;20918;51.138;17.370;2023-05-11T18:28:52;100257.27;;;16.03;39.99
34696;BME280;20918;51.138;17.370;2023-05-11T18:32:11;100260.16;;;15.90;40.12
34696;BME280;20918;51.138;17.370;2023-05-11T18:35:15;100261.33;;;15.78;40.30
34696;BME280;20918;51.138;17.370;2023-05-11T18:38:19;100271.45;;;15.66;40.38
34696;BME280;20918;51.138;17.370;2023-05-11T18:41:29;100274.63;;;15.56;40.51
34696;BME280;20918;51.138;17.370;2023-05-11T18:44:35;100273.37;;;15.47;40.64
34696;BME280;20918;51.138;17.370;2023-05-11T18:47:56;100273.91;;;15.38;40.76
34696;BME280;20918;51.138;17.370;2023-05-11T18:50:57;100285.22;;;15.28;40.93
34696;BME280;20918;51.138;17.370;2023-05-11T18:53:58;100287.21;;;15.19;41.17
34696;BME280;20918;51.138;17.370;2023-05-11T18:57:05;100285.79;;;15.07;41.34
34696;BME280;20918;51.138;17.370;2023-05-11T19:00:15;100286.29;;;14.95;41.52
34696;BME280;20918;51.138;17.370;2023-05-11T19:03:26;100295.11;;;14.84;41.58
34696;BME280;20918;51.138;17.370;2023-05-11T19:06:36;100300.51;;;14.73;41.73
34696;BME280;20918;51.138;17.370;2023-05-11T19:09:37;100298.91;;;14.63;41.96
34696;BME280;20918;51.138;17.370;2023-05-11T19:12:41;100304.02;;;14.57;42.11
34696;BME280;20918;51.138;17.370;2023-05-11T19:16:09;100306.24;;;14.51;42.26
34696;BME280;20918;51.138;17.370;2023-05-11T19:19:09;100307.73;;;14.44;42.46
34696;BME280;20918;51.138;17.370;2023-05-11T19:22:12;100312.66;;;14.35;42.57
34696;BME280;20918;51.138;17.370;2023-05-11T19:25:14;100313.03;;;14.26;42.85
34696;BME280;20918;51.138;17.370;2023-05-11T19:28:15;100318.51;;;14.18;43.08
34696;BME280;20918;51.138;17.370;2023-05-11T19:31:19;100320.57;;;14.09;43.23
34696;BME280;20918;51.138;17.370;2023-05-11T19:34:26;100322.10;;;14.01;43.41
34696;BME280;20918;51.138;17.370;2023-05-11T19:37:35;100319.70;;;13.93;43.57
34696;BME280;20918;51.138;17.370;2023-05-11T19:40:38;100319.99;;;13.86;43.68
34696;BME280;20918;51.138;17.370;2023-05-11T19:43:41;100326.89;;;13.80;43.80
34696;BME280;20918;51.138;17.370;2023-05-11T19:46:52;100328.09;;;13.75;44.00
34696;BME280;20918;51.138;17.370;2023-05-11T19:49:56;100328.33;;;13.70;44.15
34696;BME280;20918;51.138;17.370;2023-05-11T19:52:57;100331.55;;;13.63;44.28
34696;BME280;20918;51.138;17.370;2023-05-11T19:55:58;100331.29;;;13.57;44.41
34696;BME280;20918;51.138;17.370;2023-05-11T19:59:05;100330.31;;;13.50;44.48
34696;BME280;20918;51.138;17.370;2023-05-11T20:02:09;100331.36;;;13.46;44.62
34696;BME280;20918;51.138;17.370;2023-05-11T20:05:10;100329.44;;;13.41;44.73
34696;BME280;20918;51.138;17.370;2023-05-11T20:08:14;100330.34;;;13.36;44.94
34696;BME280;20918;51.138;17.370;2023-05-11T20:11:17;100331.86;;;13.31;45.10
34696;BME280;20918;51.138;17.370;2023-05-11T20:14:19;100333.71;;;13.24;45.24
34696;BME280;20918;51.138;17.370;2023-05-11T20:17:20;100336.73;;;13.16;45.44
34696;BME280;20918;51.138;17.370;2023-05-11T20:20:21;100341.29;;;13.07;45.50
34696;BME280;20918;51.138;17.370;2023-05-11T20:23:22;100347.05;;;13.01;45.83
34696;BME280;20918;51.138;17.370;2023-05-11T20:26:33;100348.08;;;12.93;45.98